createdAt,value
2018-07-31T00:01:47.864Z,75.17
2018-07-31T00:04:18.383Z,74.62
2018-07-31T00:06:48.914Z,74.94
2018-07-31T00:09:19.298Z,75.34
2018-07-31T00:11:49.820Z,74.53
2018-07-31T00:14:20.250Z,74.12
2018-07-31T00:16:50.748Z,72.88
2018-07-31T00:19:21.220Z,72.77
2018-07-31T00:21:51.590Z,72.48
2018-07-31T00:24:22.151Z,72.39
2018-07-31T00:26:52.587Z,72.90
2018-07-31T00:29:22.991Z,73.21
2018-07-31T00:31:53.384Z,72.91
2018-07-31T00:34:23.816Z,74.05
2018-07-31T00:36:54.283Z,74.73
2018-07-31T00:39:24.655Z,74.03
2018-07-31T00:41:55.078Z,73.34
2018-07-31T00:44:25.550Z,73.74
2018-07-31T00:46:55.975Z,73.11
2018-07-31T00:49:26.350Z,74.13
2018-07-31T00:51:56.852Z,73.95
2018-07-31T00:54:27.276Z,74.28
2018-07-31T00:56:57.659Z,73.85
2018-07-31T00:59:28.128Z,74.48
2018-07-31T01:01:58.664Z,74.73
2018-07-31T01:04:29.156Z,74.50
2018-07-31T01:06:59.604Z,74.77
2018-07-31T01:09:30.085Z,75.02
2018-07-31T01:12:00.591Z,74.84
2018-07-31T01:14:31.096Z,75.42
2018-07-31T01:17:01.615Z,75.08
2018-07-31T01:19:32.035Z,74.48
2018-07-31T01:22:02.580Z,74.51
2018-07-31T01:24:33.042Z,75.01
2018-07-31T01:27:03.490Z,75.20
2018-07-31T01:29:33.899Z,74.95
2018-07-31T01:32:04.356Z,74.48
2018-07-31T01:34:34.854Z,73.88
2018-07-31T01:37:05.315Z,73.99
2018-07-31T01:39:35.767Z,73.78
2018-07-31T01:42:06.301Z,73.95
2018-07-31T01:44:36.735Z,73.88
2018-07-31T01:47:07.242Z,73.51
2018-07-31T01:49:37.684Z,73.63
2018-07-31T01:52:08.244Z,73.59
2018-07-31T01:54:38.652Z,73.58
2018-07-31T01:57:09.243Z,74.01
2018-07-31T01:59:39.818Z,74.42
2018-07-31T02:02:10.292Z,73.88
2018-07-31T02:04:40.709Z,73.90
2018-07-31T02:07:11.148Z,73.87
2018-07-31T02:09:41.599Z,73.94
2018-07-31T02:12:11.982Z,73.61
2018-07-31T02:14:42.498Z,73.90
2018-07-31T02:17:12.915Z,73.56
2018-07-31T02:19:43.395Z,73.67
2018-07-31T02:22:13.827Z,73.85
2018-07-31T02:24:44.311Z,73.07
2018-07-31T02:27:14.743Z,73.19
2018-07-31T02:29:50.183Z,73.93
2018-07-31T02:32:20.647Z,73.47
2018-07-31T02:34:51.089Z,74.24
2018-07-31T02:37:21.614Z,74.05
2018-07-31T02:39:51.995Z,73.73
2018-07-31T02:42:22.429Z,73.44
2018-07-31T02:44:52.862Z,73.02
2018-07-31T02:47:23.338Z,74.50
2018-07-31T02:49:53.837Z,74.60
2018-07-31T02:52:24.399Z,74.34
2018-07-31T02:54:54.892Z,73.78
2018-07-31T02:57:25.300Z,73.34
2018-07-31T02:59:55.724Z,73.18
2018-07-31T03:02:26.107Z,73.77
2018-07-31T03:04:56.590Z,74.64
2018-07-31T03:07:26.976Z,73.89
2018-07-31T03:09:57.534Z,73.54
2018-07-31T03:12:28.020Z,73.09
2018-07-31T03:14:58.477Z,73.40
2018-07-31T03:17:28.890Z,72.74
2018-07-31T03:19:59.263Z,72.75
2018-07-31T03:22:29.751Z,73.22
2018-07-31T03:25:00.250Z,73.09
2018-07-31T03:27:30.694Z,73.47
2018-07-31T03:30:01.104Z,74.01
2018-07-31T03:32:31.533Z,73.99
2018-07-31T03:35:01.960Z,74.21
2018-07-31T03:37:32.480Z,74.25
2018-07-31T03:40:02.943Z,74.08
2018-07-31T03:42:33.356Z,74.05
2018-07-31T03:45:03.940Z,74.53
2018-07-31T03:47:34.549Z,74.85
2018-07-31T03:50:05.266Z,75.12
2018-07-31T03:52:35.659Z,74.87
2018-07-31T03:55:06.244Z,74.98
2018-07-31T03:57:36.675Z,74.85
2018-07-31T04:00:07.732Z,74.55
2018-07-31T04:02:38.183Z,75.22
2018-07-31T04:05:08.679Z,74.87
2018-07-31T04:07:39.164Z,74.89
2018-07-31T04:10:09.559Z,74.82
2018-07-31T04:12:39.996Z,74.47
2018-07-31T04:15:10.411Z,73.92
2018-07-31T04:17:40.841Z,74.03
2018-07-31T04:20:11.243Z,73.53
2018-07-31T04:22:41.753Z,73.78
2018-07-31T04:25:12.181Z,74.08
2018-07-31T04:27:42.691Z,73.56
2018-07-31T04:30:13.212Z,73.22
2018-07-31T04:32:43.636Z,72.71
2018-07-31T04:35:14.136Z,72.45
2018-07-31T04:37:44.587Z,72.67
2018-07-31T04:40:15.077Z,72.56
2018-07-31T04:42:45.495Z,72.54
2018-07-31T04:45:15.987Z,72.22
2018-07-31T04:47:46.469Z,72.04
2018-07-31T04:50:16.865Z,72.00
2018-07-31T04:52:47.293Z,71.56
2018-07-31T04:55:17.826Z,72.25
2018-07-31T04:57:48.309Z,71.21
2018-07-31T05:00:18.831Z,70.89
2018-07-31T05:02:49.196Z,71.71
2018-07-31T05:05:19.730Z,70.80
2018-07-31T05:07:50.115Z,70.33
2018-07-31T05:10:20.574Z,70.53
2018-07-31T05:12:51.043Z,71.16
2018-07-31T05:15:21.698Z,70.96
2018-07-31T05:17:52.245Z,71.26
2018-07-31T05:20:22.664Z,71.53
2018-07-31T05:22:53.689Z,71.60
2018-07-31T05:25:24.249Z,70.77
2018-07-31T05:27:54.631Z,69.86
2018-07-31T05:30:25.124Z,69.50
2018-07-31T05:32:55.657Z,69.71
2018-07-31T05:35:26.140Z,68.82
2018-07-31T05:37:56.677Z,68.29
2018-07-31T05:40:27.145Z,67.89
2018-07-31T05:42:57.575Z,68.22
2018-07-31T05:45:28.032Z,67.27
2018-07-31T05:47:58.395Z,67.54
2018-07-31T05:50:28.850Z,66.20
2018-07-31T05:52:59.209Z,67.32
2018-07-31T05:55:29.633Z,66.93
2018-07-31T05:58:00.010Z,66.70
2018-07-31T06:00:30.507Z,66.39
2018-07-31T06:03:00.919Z,66.15
2018-07-31T06:05:31.681Z,65.82
2018-07-31T06:08:02.079Z,66.73
2018-07-31T06:10:32.560Z,66.46
2018-07-31T06:13:02.966Z,66.30
2018-07-31T06:15:33.420Z,66.06
2018-07-31T06:18:03.867Z,66.85
2018-07-31T06:20:34.281Z,66.38
2018-07-31T06:23:04.789Z,65.41
2018-07-31T06:25:35.386Z,65.69
2018-07-31T06:28:05.939Z,65.12
2018-07-31T06:30:36.400Z,64.72
2018-07-31T06:33:06.942Z,64.74
2018-07-31T06:35:37.315Z,64.90
2018-07-31T06:38:07.917Z,64.05
2018-07-31T06:40:38.363Z,64.39
2018-07-31T06:43:08.891Z,63.18
2018-07-31T06:45:39.416Z,62.57
2018-07-31T06:48:09.944Z,61.88
2018-07-31T06:50:40.443Z,61.66
2018-07-31T06:53:10.971Z,59.69
2018-07-31T06:55:41.516Z,58.47
2018-07-31T06:58:12.191Z,58.18
2018-07-31T07:00:42.689Z,57.72
2018-07-31T07:03:13.160Z,57.16
2018-07-31T07:05:43.643Z,56.52
2018-07-31T07:08:14.086Z,57.10
2018-07-31T07:10:44.482Z,56.11
2018-07-31T07:13:14.975Z,55.89
2018-07-31T07:15:45.531Z,55.18
2018-07-31T07:18:16.168Z,55.90
2018-07-31T07:20:46.787Z,56.29
2018-07-31T07:23:17.344Z,56.51
2018-07-31T07:25:47.928Z,56.71
2018-07-31T07:28:18.406Z,57.14
2018-07-31T07:30:48.984Z,55.54
2018-07-31T07:33:19.480Z,55.29
2018-07-31T07:35:49.998Z,55.15
2018-07-31T07:38:20.611Z,55.33
2018-07-31T07:40:51.340Z,54.64
2018-07-31T07:43:21.836Z,54.73
2018-07-31T07:45:52.375Z,54.41
2018-07-31T07:48:22.979Z,54.27
2018-07-31T07:50:54.119Z,54.07
2018-07-31T07:53:24.730Z,52.92
2018-07-31T07:55:55.324Z,52.35
2018-07-31T07:58:25.816Z,52.63
2018-07-31T08:00:56.355Z,52.21
2018-07-31T08:03:26.907Z,52.74
2018-07-31T08:05:57.439Z,52.37
2018-07-31T08:08:28.525Z,53.17
2018-07-31T08:11:00.291Z,53.29
2018-07-31T08:13:31.046Z,53.02
2018-07-31T08:16:01.483Z,52.57
2018-07-31T08:18:32.143Z,51.44
2018-07-31T08:21:02.681Z,50.84
2018-07-31T08:23:33.209Z,51.01
2018-07-31T08:26:03.711Z,50.30
2018-07-31T08:28:34.252Z,51.01
2018-07-31T08:31:04.779Z,50.70
2018-07-31T08:33:35.415Z,50.81
2018-07-31T08:36:06.047Z,50.96
2018-07-31T08:38:36.591Z,50.87
2018-07-31T08:41:07.127Z,50.42
2018-07-31T08:43:37.662Z,50.82
2018-07-31T08:46:08.256Z,49.42
2018-07-31T08:48:38.811Z,50.01
2018-07-31T08:51:09.465Z,50.07
2018-07-31T08:53:39.999Z,50.19
2018-07-31T08:56:10.487Z,51.20
2018-07-31T08:58:41.164Z,51.19
2018-07-31T09:01:11.591Z,50.42
2018-07-31T09:03:42.112Z,51.31
2018-07-31T09:06:12.530Z,50.46
2018-07-31T09:08:43.068Z,50.08
2018-07-31T09:11:13.442Z,49.83
2018-07-31T09:13:43.926Z,49.95
2018-07-31T09:16:14.335Z,49.85
2018-07-31T09:18:44.819Z,49.39
2018-07-31T09:21:15.259Z,49.54
2018-07-31T09:23:45.764Z,49.42
2018-07-31T09:26:16.176Z,49.56
2018-07-31T09:28:46.666Z,49.53
2018-07-31T09:31:19.022Z,49.49
2018-07-31T09:33:49.523Z,49.30
2018-07-31T09:36:20.099Z,49.56
2018-07-31T09:38:50.840Z,49.33
2018-07-31T09:41:21.885Z,49.88
2018-07-31T09:43:52.579Z,49.89
2018-07-31T09:46:23.148Z,50.08
2018-07-31T09:48:54.381Z,50.04
2018-07-31T09:51:24.814Z,49.93
2018-07-31T09:53:55.318Z,49.85
2018-07-31T09:56:25.723Z,49.08
2018-07-31T09:58:56.521Z,49.23
2018-07-31T10:01:26.951Z,49.90
2018-07-31T10:03:57.412Z,50.05
2018-07-31T10:06:27.791Z,49.12
2018-07-31T10:08:58.319Z,48.57
2018-07-31T10:11:28.807Z,48.74
2018-07-31T10:13:59.342Z,48.60
2018-07-31T10:16:29.744Z,48.11
2018-07-31T10:19:00.415Z,47.33
2018-07-31T10:21:30.827Z,46.98
2018-07-31T10:24:01.400Z,46.96
2018-07-31T10:26:31.999Z,47.26
2018-07-31T10:29:02.498Z,46.31
2018-07-31T10:31:33.032Z,46.90
2018-07-31T10:34:03.684Z,46.08
2018-07-31T10:36:34.188Z,46.31
2018-07-31T10:39:06.460Z,46.07
2018-07-31T10:41:37.155Z,45.55
2018-07-31T10:44:07.816Z,44.05
2018-07-31T10:46:38.242Z,45.63
2018-07-31T10:49:08.839Z,45.87
2018-07-31T10:51:39.290Z,45.59
2018-07-31T10:54:09.988Z,46.01
2018-07-31T10:56:40.658Z,45.63
2018-07-31T10:59:11.263Z,45.38
2018-07-31T11:01:41.716Z,44.70
2018-07-31T11:04:12.335Z,44.18
2018-07-31T11:06:42.802Z,44.02
2018-07-31T11:09:13.254Z,44.07
2018-07-31T11:11:43.793Z,44.90
2018-07-31T11:14:14.354Z,44.64
2018-07-31T11:16:45.078Z,44.59
2018-07-31T11:19:15.483Z,43.22
2018-07-31T11:21:45.994Z,41.60
2018-07-31T11:24:16.448Z,42.39
2018-07-31T11:26:47.044Z,41.47
2018-07-31T11:29:17.574Z,43.22
2018-07-31T11:31:48.044Z,42.07
2018-07-31T11:34:18.603Z,41.73
2018-07-31T11:36:49.188Z,41.92
2018-07-31T11:39:19.687Z,40.66
2018-07-31T11:41:50.277Z,42.05
2018-07-31T11:44:20.735Z,41.75
2018-07-31T11:46:51.162Z,43.24
2018-07-31T11:49:21.646Z,46.00
2018-07-31T11:51:52.213Z,46.84
2018-07-31T11:54:22.742Z,49.41
2018-07-31T11:56:53.411Z,49.00
2018-07-31T11:59:23.920Z,48.94
2018-07-31T12:01:54.556Z,49.63
2018-07-31T12:04:25.040Z,49.71
2018-07-31T12:06:55.467Z,49.94
2018-07-31T12:09:26.000Z,49.05
2018-07-31T12:11:56.485Z,47.49
2018-07-31T12:14:26.923Z,46.70
2018-07-31T12:16:58.658Z,44.29
2018-07-31T12:19:29.064Z,45.15
2018-07-31T12:21:59.596Z,44.43
2018-07-31T12:24:29.980Z,44.47
2018-07-31T12:27:00.471Z,44.79
2018-07-31T12:29:31.036Z,45.05
2018-07-31T12:32:01.533Z,43.45
2018-07-31T12:34:32.052Z,43.96
2018-07-31T12:37:02.456Z,43.86
2018-07-31T12:39:32.920Z,43.03
2018-07-31T12:42:03.340Z,43.65
2018-07-31T12:44:33.767Z,43.30
2018-07-31T12:47:04.444Z,44.17
2018-07-31T12:49:34.975Z,43.92
2018-07-31T12:52:05.449Z,43.88
2018-07-31T12:54:35.924Z,43.20
2018-07-31T12:57:06.511Z,43.61
2018-07-31T12:59:36.946Z,42.24
2018-07-31T13:02:07.403Z,43.03
2018-07-31T13:04:37.843Z,42.58
2018-07-31T13:07:08.255Z,42.15
2018-07-31T13:09:39.090Z,41.70
2018-07-31T13:12:10.594Z,42.29
2018-07-31T13:14:41.144Z,42.65
2018-07-31T13:17:13.763Z,42.80
2018-07-31T13:19:44.547Z,41.89
2018-07-31T13:22:15.164Z,41.77
2018-07-31T13:24:45.736Z,41.24
2018-07-31T13:27:16.211Z,40.72
2018-07-31T13:29:46.985Z,41.52
2018-07-31T13:32:17.572Z,43.00
2018-07-31T13:34:48.156Z,42.91
2018-07-31T13:37:18.671Z,42.51
2018-07-31T13:39:49.199Z,42.44
2018-07-31T13:42:19.823Z,42.48
2018-07-31T13:44:50.401Z,43.13
2018-07-31T13:47:20.931Z,42.96
2018-07-31T13:49:51.431Z,42.55
2018-07-31T13:52:22.907Z,41.92
2018-07-31T13:54:53.413Z,40.97
2018-07-31T13:57:23.923Z,41.40
2018-07-31T13:59:54.434Z,41.80
2018-07-31T14:02:25.012Z,41.37
2018-07-31T14:04:55.527Z,41.42
2018-07-31T14:07:25.975Z,41.41
2018-07-31T14:09:56.500Z,40.87
2018-07-31T14:12:27.037Z,41.29
2018-07-31T14:14:57.547Z,41.68
2018-07-31T14:17:28.125Z,41.65
2018-07-31T14:19:58.603Z,41.86
2018-07-31T14:22:29.095Z,43.96
2018-07-31T14:24:59.566Z,42.06
2018-07-31T14:27:30.153Z,41.37
2018-07-31T14:30:00.684Z,42.22
2018-07-31T14:32:31.589Z,43.55
2018-07-31T14:35:02.051Z,45.79
2018-07-31T14:37:32.444Z,45.91
2018-07-31T14:40:02.868Z,46.80
2018-07-31T14:42:33.291Z,46.67
2018-07-31T14:45:03.815Z,47.27
2018-07-31T14:47:34.221Z,47.95
2018-07-31T14:50:05.239Z,48.50
2018-07-31T14:52:35.698Z,49.28
2018-07-31T14:55:06.422Z,50.62
2018-07-31T14:57:36.872Z,50.76
2018-07-31T15:00:08.045Z,51.50
2018-07-31T15:02:38.509Z,51.21
2018-07-31T15:05:08.949Z,50.12
2018-07-31T15:07:39.416Z,51.42
2018-07-31T15:10:10.132Z,51.60
2018-07-31T15:12:40.571Z,51.27
2018-07-31T15:15:10.944Z,50.09
2018-07-31T15:17:41.487Z,49.79
2018-07-31T15:20:11.887Z,51.31
2018-07-31T15:22:42.451Z,50.40
2018-07-31T15:25:12.858Z,50.64
2018-07-31T15:27:43.340Z,50.30
2018-07-31T15:30:13.824Z,50.56
2018-07-31T15:32:44.300Z,50.82
2018-07-31T15:35:14.756Z,51.16
2018-07-31T15:37:45.200Z,51.50
2018-07-31T15:40:15.604Z,51.53
2018-07-31T15:42:46.060Z,52.21
2018-07-31T15:45:16.436Z,52.80
2018-07-31T15:47:46.871Z,53.83
2018-07-31T15:50:17.295Z,54.46
2018-07-31T15:52:47.794Z,53.99
2018-07-31T15:55:18.284Z,54.15
2018-07-31T15:57:48.828Z,54.42
2018-07-31T16:00:19.216Z,53.94
2018-07-31T16:02:49.644Z,54.62
2018-07-31T16:05:20.042Z,54.64
2018-07-31T16:07:50.463Z,54.79
2018-07-31T16:10:20.851Z,54.66
2018-07-31T16:12:51.314Z,54.39
2018-07-31T16:15:21.791Z,54.74
2018-07-31T16:17:52.215Z,54.41
2018-07-31T16:20:22.712Z,54.46
2018-07-31T16:22:53.172Z,53.48
2018-07-31T16:25:23.628Z,54.11
2018-07-31T16:27:54.148Z,53.84
2018-07-31T16:30:24.597Z,55.09
2018-07-31T16:32:55.060Z,55.10
2018-07-31T16:35:25.522Z,55.63
2018-07-31T16:37:55.947Z,55.74
2018-07-31T16:40:26.384Z,54.83
2018-07-31T16:42:56.858Z,54.91
2018-07-31T16:45:27.414Z,55.69
2018-07-31T16:47:57.921Z,55.13
2018-07-31T16:50:28.297Z,54.62
2018-07-31T16:52:58.803Z,54.15
2018-07-31T16:55:29.234Z,54.28
2018-07-31T16:57:59.599Z,54.46
2018-07-31T17:00:30.030Z,54.18
2018-07-31T17:03:00.407Z,52.99
2018-07-31T17:05:30.861Z,52.75
2018-07-31T17:08:01.251Z,52.84
2018-07-31T17:10:31.736Z,53.39
2018-07-31T17:13:02.176Z,53.80
2018-07-31T17:15:32.596Z,53.79
2018-07-31T17:18:03.015Z,55.08
2018-07-31T17:20:33.503Z,54.91
2018-07-31T17:23:03.888Z,56.14
2018-07-31T17:25:34.331Z,56.75
2018-07-31T17:28:04.768Z,56.27
2018-07-31T17:30:35.147Z,56.47
2018-07-31T17:33:05.596Z,56.58
2018-07-31T17:35:36.039Z,56.50
2018-07-31T17:38:06.740Z,56.25
2018-07-31T17:40:37.143Z,56.44
2018-07-31T17:43:07.564Z,57.46
2018-07-31T17:45:37.935Z,58.52
2018-07-31T17:48:08.400Z,58.38
2018-07-31T17:50:38.783Z,58.00
2018-07-31T17:53:09.183Z,58.01
2018-07-31T17:55:39.585Z,57.80
2018-07-31T17:58:10.039Z,58.44
2018-07-31T18:00:40.402Z,59.16
2018-07-31T18:03:10.854Z,59.15
2018-07-31T18:05:41.278Z,58.33
2018-07-31T18:08:11.691Z,58.93
2018-07-31T18:10:42.075Z,58.46
2018-07-31T18:13:12.568Z,58.92
2018-07-31T18:15:43.034Z,59.14
2018-07-31T18:18:13.507Z,59.74
2018-07-31T18:20:43.899Z,59.65
2018-07-31T18:23:14.391Z,59.34
2018-07-31T18:25:44.759Z,59.35
2018-07-31T18:28:15.216Z,59.67
2018-07-31T18:30:45.717Z,60.92
2018-07-31T18:33:16.151Z,61.49
2018-07-31T18:35:46.564Z,60.94
2018-07-31T18:38:17.082Z,61.51
2018-07-31T18:40:47.532Z,61.19
2018-07-31T18:43:17.921Z,60.97
2018-07-31T18:45:48.520Z,61.42
2018-07-31T18:48:18.968Z,61.46
2018-07-31T18:50:49.391Z,61.58
2018-07-31T18:53:19.806Z,61.96
2018-07-31T18:55:50.200Z,61.80
2018-07-31T18:58:20.567Z,62.52
2018-07-31T19:00:51.025Z,62.44
2018-07-31T19:03:21.534Z,61.97
2018-07-31T19:05:51.923Z,61.96
2018-07-31T19:08:22.387Z,62.02
2018-07-31T19:10:52.793Z,62.34
2018-07-31T19:13:23.195Z,62.56
2018-07-31T19:15:53.650Z,62.22
2018-07-31T19:18:24.151Z,61.76
2018-07-31T19:20:54.669Z,62.11
2018-07-31T19:23:25.109Z,62.48
2018-07-31T19:25:55.580Z,62.35
2018-07-31T19:28:25.943Z,62.23
2018-07-31T19:30:56.351Z,62.32
2018-07-31T19:33:26.873Z,62.72
2018-07-31T19:35:57.267Z,62.34
2018-07-31T19:38:27.715Z,61.73
2018-07-31T19:40:58.160Z,61.83
2018-07-31T19:43:28.621Z,61.94
2018-07-31T19:45:59.013Z,61.91
2018-07-31T19:48:29.439Z,62.19
2018-07-31T19:50:59.828Z,61.80
2018-07-31T19:53:30.252Z,62.08
2018-07-31T19:56:00.702Z,62.30
2018-07-31T19:58:31.180Z,62.32
2018-07-31T20:01:01.681Z,62.44
2018-07-31T20:03:32.145Z,61.77
2018-07-31T20:06:02.639Z,62.01
2018-07-31T20:08:33.064Z,62.03
2018-07-31T20:11:03.552Z,62.23
2018-07-31T20:13:33.933Z,61.81
2018-07-31T20:16:05.054Z,62.54
2018-07-31T20:18:35.731Z,63.15
2018-07-31T20:21:06.154Z,62.69
2018-07-31T20:23:36.588Z,62.54
2018-07-31T20:26:07.224Z,63.00
2018-07-31T20:28:37.660Z,63.53
2018-07-31T20:31:08.104Z,63.43
2018-07-31T20:33:38.657Z,62.20
2018-07-31T20:36:09.096Z,63.67
2018-07-31T20:38:39.603Z,63.44
2018-07-31T20:41:10.012Z,64.54
2018-07-31T20:43:40.404Z,64.80
2018-07-31T20:46:10.872Z,63.69
2018-07-31T20:48:41.238Z,62.31
2018-07-31T20:51:11.707Z,62.84
2018-07-31T20:53:42.247Z,62.70
2018-07-31T20:56:12.771Z,62.42
2018-07-31T20:58:43.243Z,62.69
2018-07-31T21:01:13.900Z,62.74
2018-07-31T21:03:44.370Z,62.03
2018-07-31T21:06:14.845Z,62.80
2018-07-31T21:08:45.286Z,62.86
2018-07-31T21:11:15.923Z,62.82
2018-07-31T21:13:46.366Z,62.60
2018-07-31T21:16:16.858Z,62.57
2018-07-31T21:18:47.218Z,63.48
2018-07-31T21:21:17.700Z,62.74
2018-07-31T21:23:48.208Z,63.49
2018-07-31T21:26:18.616Z,63.89
2018-07-31T21:28:48.993Z,63.89
2018-07-31T21:31:19.417Z,64.70
2018-07-31T21:33:49.915Z,64.40
2018-07-31T21:36:20.323Z,64.99
2018-07-31T21:38:50.740Z,64.93
2018-07-31T21:41:21.229Z,64.57
2018-07-31T21:43:51.812Z,64.75
2018-07-31T21:46:22.335Z,64.74
2018-07-31T21:48:52.865Z,65.32
2018-07-31T21:51:23.305Z,65.09
2018-07-31T21:53:53.719Z,64.42
2018-07-31T21:56:24.076Z,64.42
2018-07-31T21:58:54.507Z,64.08
2018-07-31T22:01:24.927Z,64.27
2018-07-31T22:03:55.433Z,64.99
2018-07-31T22:06:25.884Z,65.16
2018-07-31T22:08:56.298Z,66.24
2018-07-31T22:11:26.687Z,66.08
2018-07-31T22:13:57.166Z,67.17
2018-07-31T22:16:27.556Z,66.95
2018-07-31T22:18:58.039Z,68.16
2018-07-31T22:21:28.414Z,67.92
2018-07-31T22:23:58.850Z,68.12
2018-07-31T22:26:29.288Z,68.54
2018-07-31T22:28:59.715Z,68.61
2018-07-31T22:31:30.084Z,68.53
2018-07-31T22:34:00.575Z,68.83
2018-07-31T22:36:30.947Z,68.85
2018-07-31T22:39:01.373Z,69.51
2018-07-31T22:41:31.850Z,69.16
2018-07-31T22:44:02.218Z,70.14
2018-07-31T22:46:32.671Z,69.99
2018-07-31T22:49:03.227Z,69.81
2018-07-31T22:51:33.740Z,70.24
2018-07-31T22:54:04.230Z,69.80
2018-07-31T22:56:34.731Z,69.93
2018-07-31T22:59:05.159Z,69.71
2018-07-31T23:01:35.631Z,69.01
2018-07-31T23:04:06.101Z,69.25
2018-07-31T23:06:36.543Z,69.48
2018-07-31T23:09:09.500Z,69.43
2018-07-31T23:11:39.959Z,69.02
2018-07-31T23:14:10.537Z,68.59
2018-07-31T23:16:40.970Z,68.42
2018-07-31T23:19:11.373Z,68.58
2018-07-31T23:21:41.827Z,68.47
2018-07-31T23:24:12.264Z,68.03
2018-07-31T23:26:42.724Z,68.54
2018-07-31T23:29:13.146Z,68.45
2018-07-31T23:31:43.608Z,68.11
2018-07-31T23:34:14.070Z,68.01
2018-07-31T23:36:44.572Z,67.98
2018-07-31T23:39:15.016Z,68.46
2018-07-31T23:41:45.435Z,68.53
2018-07-31T23:44:15.812Z,68.48
2018-07-31T23:46:46.308Z,69.09
2018-07-31T23:49:16.719Z,68.56
2018-07-31T23:51:47.176Z,69.56
2018-07-31T23:54:17.565Z,68.73
2018-07-31T23:56:48.019Z,68.74
2018-07-31T23:59:18.443Z,69.73
